Time;durP1;ratioP1;P1;durP2;ratioP2;P2;SDS_P1;SDS_P2;PMS_P1;PMS_P2;Temp;Humidity;BMP_temperature;BMP_pressure;BME280_temperature;BME280_humidity;BME280_pressure;Samples;Min_cycle;Max_cycle;Signal;HPM_P1;HPM_P2
2022/01/18 00:00:14;;;;;;;28.83;5.40;;;9.00;86.10;;;;;;4995600;28;20374;-89
2022/01/18 00:02:40;;;;;;;22.13;4.38;;;8.90;86.20;;;;;;4994383;28;20026;-90
2022/01/18 00:05:07;;;;;;;25.80;4.90;;;9.00;86.20;;;;;;4973110;28;20543;-90
2022/01/18 00:07:33;;;;;;;23.15;5.28;;;9.00;86.30;;;;;;4992682;28;20037;-90
2022/01/18 00:09:59;;;;;;;27.73;5.50;;;8.90;86.30;;;;;;4993854;28;20030;-89
2022/01/18 00:20:44;;;;;;;29.92;5.88;;;8.90;86.40;;;;;;4996423;28;20481;-89
2022/01/18 00:23:10;;;;;;;21.73;4.13;;;8.90;86.50;;;;;;5009198;28;20105;-89
2022/01/18 00:25:39;;;;;;;28.58;4.78;;;8.90;86.50;;;;;;4995841;28;20472;-90
2022/01/18 00:28:06;;;;;;;26.17;6.72;;;8.90;86.50;;;;;;4978921;28;20064;-90
2022/01/18 00:33:59;;;;;;;28.30;4.72;;;9.00;86.50;;;;;;5008995;28;20100;-90
2022/01/18 00:36:23;;;;;;;28.80;5.40;;;8.90;86.50;;;;;;4994229;28;20056;-89
2022/01/18 00:38:48;;;;;;;32.35;6.32;;;8.90;86.50;;;;;;4995739;28;20018;-90
2022/01/18 00:41:16;;;;;;;32.45;5.70;;;9.00;86.60;;;;;;4978842;28;20049;-90
2022/01/18 00:43:43;;;;;;;30.92;5.43;;;8.90;86.60;;;;;;4995144;28;20488;-90
2022/01/18 00:46:11;;;;;;;40.55;6.57;;;8.90;86.60;;;;;;4995137;28;20022;-90
2022/01/18 00:48:38;;;;;;;26.17;5.40;;;8.90;86.70;;;;;;4978169;28;20373;-90
2022/01/18 00:51:06;;;;;;;31.20;5.93;;;8.90;86.70;;;;;;4995029;28;20169;-90
2022/01/18 00:53:34;;;;;;;33.00;5.15;;;8.90;86.80;;;;;;4978961;28;20440;-90
2022/01/18 00:56:38;;;;;;;31.05;5.85;;;8.90;86.90;;;;;;4995423;28;20022;-90
2022/01/18 00:58:54;;;;;;;31.70;7.30;;;8.90;86.90;;;;;;4996158;28;20034;-90
2022/01/18 01:01:22;;;;;;;30.30;6.45;;;8.90;86.90;;;;;;4963189;28;20385;-90
2022/01/18 01:03:48;;;;;;;27.35;5.85;;;8.90;87.00;;;;;;4994924;28;20026;-90
2022/01/18 01:06:14;;;;;;;32.53;6.35;;;8.80;87.00;;;;;;4994906;28;20075;-90
2022/01/18 01:08:40;;;;;;;36.45;7.05;;;8.80;87.20;;;;;;4995019;28;20022;-90
2022/01/18 01:11:09;;;;;;;37.95;7.20;;;8.80;87.20;;;;;;4978270;28;20030;-90
2022/01/18 01:13:37;;;;;;;35.72;6.45;;;8.80;87.30;;;;;;4994542;28;20050;-90
2022/01/18 01:16:56;;;;;;;42.35;7.60;;;8.80;87.30;;;;;;4994259;28;20022;-89
2022/01/18 01:45:34;;;;;;;29.98;6.47;;;8.80;87.50;;;;;;4997202;28;20049;-90
2022/01/18 01:48:01;;;;;;;28.77;6.38;;;8.80;87.50;;;;;;4994365;28;20033;-90
2022/01/18 01:50:40;;;;;;;30.15;5.85;;;8.80;87.50;;;;;;4994340;28;20037;-89
2022/01/18 01:53:05;;;;;;;35.70;5.93;;;8.80;87.50;;;;;;4994294;28;20025;-90
2022/01/18 01:55:31;;;;;;;34.28;6.43;;;8.80;87.50;;;;;;4994053;28;20374;-90
2022/01/18 01:57:57;;;;;;;31.52;5.78;;;8.80;87.50;;;;;;4977842;28;20018;-90
2022/01/18 02:00:23;;;;;;;32.53;5.28;;;8.70;87.60;;;;;;4980217;28;20090;-90
2022/01/18 02:02:49;;;;;;;32.10;5.50;;;8.70;87.70;;;;;;4980988;28;20389;-90
2022/01/18 02:05:15;;;;;;;29.05;6.18;;;8.80;87.70;;;;;;4978962;28;20497;-90
2022/01/18 02:07:42;;;;;;;32.33;7.10;;;8.80;87.60;;;;;;4979322;28;20520;-90
2022/01/18 02:10:10;;;;;;;29.58;6.32;;;8.80;87.60;;;;;;4980585;28;20555;-91
2022/01/18 02:12:36;;;;;;;27.20;5.25;;;8.80;87.70;;;;;;4997469;28;20029;-91
2022/01/18 02:15:18;;;;;;;28.35;5.55;;;8.80;87.70;;;;;;4997578;28;20374;-91
2022/01/18 02:23:21;;;;;;;33.38;5.88;;;8.80;87.50;;;;;;5001567;28;20053;-90
2022/01/18 02:25:46;;;;;;;31.67;6.30;;;8.80;87.50;;;;;;4998420;28;20080;-89
2022/01/18 02:28:14;;;;;;;29.27;6.53;;;8.80;87.50;;;;;;4997217;28;20029;-90
2022/01/18 02:30:44;;;;;;;24.75;6.13;;;8.80;87.50;;;;;;4982091;28;20048;-89
2022/01/18 02:33:10;;;;;;;33.60;5.65;;;8.80;87.40;;;;;;5015687;28;20032;-89
2022/01/18 02:35:36;;;;;;;33.80;6.20;;;8.80;87.40;;;;;;4980836;28;20040;-90
2022/01/18 02:38:03;;;;;;;38.22;5.90;;;8.80;87.40;;;;;;4967094;28;20117;-89
2022/01/18 02:40:30;;;;;;;23.38;4.78;;;8.80;87.50;;;;;;4966622;28;20129;-89
2022/01/18 02:43:46;;;;;;;28.35;5.30;;;8.80;88.00;;;;;;4993670;28;20592;-89
2022/01/18 02:45:48;;;;;;;27.58;4.63;;;8.80;87.50;;;;;;5014560;28;20556;-90
2022/01/18 02:48:14;;;;;;;29.38;5.85;;;8.70;87.40;;;;;;5014209;28;20109;-90
2022/01/18 02:50:40;;;;;;;32.15;5.38;;;8.70;87.40;;;;;;4964210;28;20061;-89
2022/01/18 02:53:06;;;;;;;19.80;4.40;;;8.70;87.40;;;;;;4964572;28;20080;-89
2022/01/18 02:55:31;;;;;;;24.27;5.05;;;8.80;87.50;;;;;;4963937;28;20133;-90
2022/01/18 02:58:04;;;;;;;26.98;5.57;;;8.70;87.40;;;;;;4964000;28;20129;-89
2022/01/18 03:03:24;;;;;;;32.97;6.40;;;8.80;87.40;;;;;;5015509;28;20048;-89
2022/01/18 03:05:50;;;;;;;25.67;5.40;;;8.70;87.30;;;;;;4980013;28;20045;-89
2022/01/18 03:08:17;;;;;;;30.30;5.57;;;8.70;87.40;;;;;;4980039;28;20501;-89
2022/01/18 03:10:43;;;;;;;39.00;6.50;;;8.70;87.50;;;;;;4977594;28;20041;-89
2022/01/18 03:13:09;;;;;;;36.97;6.35;;;8.70;87.60;;;;;;4994968;28;20346;-89
2022/01/18 03:15:36;;;;;;;33.33;6.57;;;8.70;87.50;;;;;;4994952;28;20037;-89
2022/01/18 03:18:03;;;;;;;34.45;6.82;;;8.70;87.60;;;;;;4994465;28;20083;-90
2022/01/18 03:20:30;;;;;;;32.70;6.32;;;8.70;87.50;;;;;;4979266;28;20033;-89
2022/01/18 03:22:55;;;;;;;40.25;8.40;;;8.70;87.50;;;;;;4979715;28;20057;-90
2022/01/18 03:25:38;;;;;;;35.17;7.72;;;8.70;87.40;;;;;;4981448;28;20400;-90
2022/01/18 03:28:07;;;;;;;40.83;7.55;;;8.70;87.40;;;;;;4981696;28;20558;-89
2022/01/18 03:30:41;;;;;;;37.85;7.18;;;8.70;87.40;;;;;;4995796;28;20025;-88
2022/01/18 03:33:14;;;;;;;34.40;6.90;;;8.70;87.40;;;;;;4995547;28;20030;-90
2022/01/18 03:35:40;;;;;;;34.40;7.18;;;8.70;87.40;;;;;;4996257;28;20034;-89
2022/01/18 03:38:07;;;;;;;34.35;6.75;;;8.60;87.40;;;;;;4980415;28;20022;-91
2022/01/18 03:40:33;;;;;;;35.00;7.15;;;8.60;87.50;;;;;;4995420;28;20022;-91
2022/01/18 03:42:59;;;;;;;38.42;7.95;;;8.60;87.50;;;;;;4979359;28;20028;-90
2022/01/18 03:45:39;;;;;;;39.38;8.57;;;8.60;87.40;;;;;;4979760;28;20026;-90
2022/01/18 03:48:08;;;;;;;41.35;8.45;;;8.60;87.50;;;;;;4994931;28;20025;-90
2022/01/18 03:50:34;;;;;;;46.17;8.32;;;8.60;87.50;;;;;;4979361;28;20026;-90
2022/01/18 03:52:59;;;;;;;34.05;7.78;;;8.60;87.40;;;;;;4975684;28;20030;-90
2022/01/18 03:55:25;;;;;;;38.00;7.55;;;8.60;87.40;;;;;;4978742;28;20030;-90
2022/01/18 03:57:51;;;;;;;40.25;8.35;;;8.60;87.50;;;;;;4994755;28;20121;-90
2022/01/18 04:00:23;;;;;;;37.28;7.38;;;8.60;87.40;;;;;;4962433;28;20018;-90
2022/01/18 04:02:50;;;;;;;43.22;8.45;;;8.60;87.40;;;;;;5012665;28;20032;-90
2022/01/18 04:05:16;;;;;;;44.72;7.80;;;8.60;87.30;;;;;;4963133;28;20129;-90
2022/01/18 04:07:43;;;;;;;35.17;8.07;;;8.60;87.40;;;;;;4978580;28;20448;-91
2022/01/18 04:10:10;;;;;;;33.88;6.30;;;8.60;87.40;;;;;;4978681;28;20072;-90
2022/01/18 04:12:36;;;;;;;31.27;7.60;;;8.60;87.40;;;;;;4994832;28;20021;-89
2022/01/18 04:15:04;;;;;;;35.55;7.95;;;8.60;87.40;;;;;;4994865;28;20073;-90
2022/01/18 04:28:40;;;;;;;29.50;7.60;;;8.40;87.50;;;;;;4982757;28;20125;-90
2022/01/18 04:31:08;;;;;;;34.20;6.20;;;8.40;87.60;;;;;;4995108;28;20394;-90
2022/01/18 04:33:35;;;;;;;36.72;6.85;;;8.50;87.60;;;;;;4995062;28;20856;-90
2022/01/18 04:36:02;;;;;;;28.85;5.82;;;8.50;87.60;;;;;;4994828;28;20034;-90
2022/01/18 04:38:28;;;;;;;27.40;6.13;;;8.50;87.50;;;;;;4978624;28;21063;-90
2022/01/18 04:40:59;;;;;;;29.63;7.03;;;8.50;87.40;;;;;;5010247;28;20032;-90
2022/01/18 04:43:45;;;;;;;31.10;6.60;;;8.50;87.40;;;;;;4994897;28;20093;-90
2022/01/18 04:49:15;;;;;;;22.13;5.28;;;8.50;87.20;;;;;;4997013;28;20052;-90
2022/01/18 04:51:41;;;;;;;22.17;4.57;;;8.50;87.20;;;;;;4993775;28;20034;-90
2022/01/18 04:54:09;;;;;;;23.25;5.28;;;8.40;87.20;;;;;;4978428;28;20523;-89
2022/01/18 04:59:10;;;;;;;21.13;4.43;;;8.40;86.90;;;;;;4994436;28;20485;-89
2022/01/18 05:01:38;;;;;;;26.25;4.75;;;8.40;86.90;;;;;;4979284;28;20044;-90
2022/01/18 05:04:04;;;;;;;20.50;4.93;;;8.40;86.80;;;;;;4994920;28;20405;-90
2022/01/18 05:06:30;;;;;;;22.75;4.93;;;8.40;86.80;;;;;;4994076;28;20022;-89
2022/01/18 05:08:57;;;;;;;32.88;6.88;;;8.40;86.80;;;;;;4974577;28;20029;-89
2022/01/18 05:11:25;;;;;;;28.48;7.85;;;8.40;86.80;;;;;;4975647;28;20030;-89
2022/01/18 05:19:09;;;;;;;31.23;8.77;;;8.40;87.20;;;;;;5011980;28;20041;-89
2022/01/18 05:24:42;;;;;;;24.50;7.90;;;8.40;87.30;;;;;;5012577;28;20108;-89
2022/01/18 05:27:16;;;;;;;23.55;8.48;;;8.40;87.40;;;;;;4993937;28;20056;-89
2022/01/18 05:29:43;;;;;;;23.48;8.20;;;8.30;87.40;;;;;;4975236;28;20034;-90
2022/01/18 05:32:09;;;;;;;23.77;6.95;;;8.20;87.40;;;;;;4995270;28;20092;-89
2022/01/18 05:34:34;;;;;;;28.50;7.32;;;8.20;87.70;;;;;;4997103;28;20027;-89
2022/01/18 05:37:00;;;;;;;25.60;7.57;;;8.10;87.90;;;;;;4985190;28;20120;-89
2022/01/18 05:39:26;;;;;;;19.00;7.03;;;8.10;88.00;;;;;;4961471;28;20030;-89
2022/01/18 05:41:51;;;;;;;23.95;7.65;;;8.20;87.90;;;;;;4979974;28;20568;-89
2022/01/18 05:44:17;;;;;;;27.27;8.18;;;8.20;87.90;;;;;;4997247;28;20034;-89
2022/01/18 05:46:43;;;;;;;26.63;8.88;;;8.20;87.80;;;;;;4964446;28;20018;-89
2022/01/18 05:49:09;;;;;;;21.83;7.63;;;8.20;87.60;;;;;;4964718;28;20080;-89
2022/01/18 05:51:37;;;;;;;22.45;8.40;;;8.20;87.50;;;;;;4965129;28;20025;-89
2022/01/18 05:54:03;;;;;;;23.73;8.32;;;8.20;87.60;;;;;;4997333;28;20076;-89
2022/01/18 05:56:29;;;;;;;21.85;7.65;;;8.10;87.60;;;;;;4982361;28;20053;-90
2022/01/18 05:58:56;;;;;;;23.40;7.78;;;8.10;87.70;;;;;;4981513;28;20079;-90
2022/01/18 06:01:27;;;;;;;23.20;8.15;;;8.10;87.70;;;;;;4966055;28;20036;-89
2022/01/18 06:09:08;;;;;;;22.00;6.57;;;8.10;87.60;;;;;;5005712;28;20052;-90
2022/01/18 06:11:34;;;;;;;17.00;6.38;;;8.10;87.60;;;;;;4998136;28;20061;-89
2022/01/18 06:13:59;;;;;;;22.25;5.75;;;8.10;87.60;;;;;;4978282;28;20031;-89
2022/01/18 06:16:26;;;;;;;23.10;6.68;;;8.20;87.60;;;;;;4981222;28;20121;-89
2022/01/18 06:18:53;;;;;;;13.15;4.72;;;8.10;87.60;;;;;;4962029;28;20058;-91
2022/01/18 06:21:19;;;;;;;15.25;4.93;;;8.10;87.50;;;;;;4966293;28;20030;-90
2022/01/18 06:23:45;;;;;;;17.02;5.50;;;8.10;87.50;;;;;;4961452;28;20066;-90
2022/01/18 06:26:15;;;;;;;15.27;4.50;;;8.00;87.40;;;;;;4993792;28;20034;-90
2022/01/18 06:28:44;;;;;;;18.60;5.65;;;8.10;87.30;;;;;;4994287;28;20397;-89
2022/01/18 06:31:10;;;;;;;13.35;4.60;;;8.10;87.20;;;;;;4995388;28;20081;-91
2022/01/18 06:33:36;;;;;;;24.80;6.60;;;8.10;87.20;;;;;;4978917;28;20034;-91
2022/01/18 06:36:02;;;;;;;18.75;5.15;;;8.10;87.10;;;;;;4962664;28;20041;-91
2022/01/18 06:38:28;;;;;;;17.45;5.38;;;8.10;87.10;;;;;;4977730;28;20113;-91
2022/01/18 06:40:53;;;;;;;14.65;4.97;;;8.10;87.00;;;;;;4946132;28;20169;-91
2022/01/18 06:43:19;;;;;;;15.68;5.10;;;8.10;86.90;;;;;;4962320;28;20037;-91
2022/01/18 06:45:45;;;;;;;12.30;4.47;;;8.10;86.90;;;;;;4961190;28;20014;-90
2022/01/18 06:48:12;;;;;;;15.02;4.65;;;8.10;86.90;;;;;;4962489;28;20037;-92
2022/01/18 06:50:37;;;;;;;10.52;4.10;;;8.10;86.90;;;;;;4978457;28;20034;-92
2022/01/18 06:53:03;;;;;;;17.65;5.70;;;8.00;86.90;;;;;;4977926;28;20027;-91
2022/01/18 06:55:29;;;;;;;13.80;4.55;;;8.00;86.70;;;;;;4962285;28;20034;-92
2022/01/18 06:57:56;;;;;;;14.43;4.32;;;8.00;86.70;;;;;;4962484;28;20022;-92
2022/01/18 07:00:21;;;;;;;12.43;5.40;;;8.00;86.70;;;;;;4962717;28;20014;-91
2022/01/18 07:02:47;;;;;;;14.05;5.00;;;8.00;86.70;;;;;;4962685;28;20035;-91
2022/01/18 07:05:13;;;;;;;13.25;4.53;;;8.10;86.60;;;;;;4979037;28;20022;-92
2022/01/18 07:07:39;;;;;;;13.40;4.35;;;8.10;86.60;;;;;;4981687;28;20477;-92
2022/01/18 07:10:06;;;;;;;15.60;4.18;;;8.10;86.50;;;;;;4985381;28;20055;-91
2022/01/18 07:12:33;;;;;;;19.58;6.82;;;8.10;86.60;;;;;;4969184;28;20058;-91
2022/01/18 07:14:59;;;;;;;16.70;6.45;;;8.10;86.50;;;;;;4975155;28;20044;-92
2022/01/18 07:17:25;;;;;;;22.00;7.03;;;8.10;86.50;;;;;;4961871;28;20129;-90
2022/01/18 07:19:50;;;;;;;17.42;6.00;;;8.10;86.50;;;;;;4963891;28;20018;-92
2022/01/18 07:22:16;;;;;;;20.05;6.78;;;8.00;86.60;;;;;;4994293;28;20564;-91
2022/01/18 07:24:44;;;;;;;19.38;7.35;;;8.00;86.60;;;;;;4977854;28;20022;-91
2022/01/18 07:27:12;;;;;;;20.88;6.65;;;8.00;86.70;;;;;;4990433;28;20113;-91
2022/01/18 07:29:41;;;;;;;21.60;7.22;;;8.00;86.80;;;;;;4978773;28;20022;-91
2022/01/18 07:32:08;;;;;;;15.55;6.53;;;8.00;86.90;;;;;;4958264;28;20066;-91
2022/01/18 07:34:35;;;;;;;16.15;8.05;;;8.00;86.90;;;;;;4958055;28;20037;-92
2022/01/18 07:37:02;;;;;;;17.10;7.63;;;8.00;87.00;;;;;;4962984;28;20415;-91
2022/01/18 07:39:28;;;;;;;19.48;7.13;;;7.90;87.10;;;;;;4978283;28;20094;-92
2022/01/18 07:41:54;;;;;;;23.40;7.97;;;7.90;87.20;;;;;;4978413;28;20112;-92
2022/01/18 07:44:19;;;;;;;17.55;7.65;;;7.90;87.10;;;;;;4977717;28;20128;-91
2022/01/18 07:46:45;;;;;;;22.27;8.50;;;7.90;87.10;;;;;;4961592;28;20029;-92
2022/01/18 07:49:11;;;;;;;22.50;9.20;;;7.90;87.20;;;;;;4977949;28;20118;-91
2022/01/18 07:51:36;;;;;;;22.23;8.50;;;7.90;87.20;;;;;;4961534;28;20026;-91
2022/01/18 07:54:03;;;;;;;25.67;9.27;;;7.90;87.30;;;;;;4977542;28;20120;-91
2022/01/18 07:56:28;;;;;;;16.40;7.85;;;7.90;87.30;;;;;;4961218;28;20437;-91
2022/01/18 07:58:54;;;;;;;17.77;8.07;;;7.90;87.40;;;;;;4967843;28;20030;-91
2022/01/18 08:01:20;;;;;;;17.63;7.47;;;7.90;87.40;;;;;;4976379;28;20026;-92
2022/01/18 08:03:46;;;;;;;25.00;8.52;;;7.80;87.40;;;;;;4977045;28;20046;-92
2022/01/18 08:06:12;;;;;;;16.67;7.57;;;7.80;87.40;;;;;;4977265;28;20037;-91
2022/01/18 08:08:39;;;;;;;18.65;7.95;;;7.80;87.40;;;;;;4961278;28;20027;-91
2022/01/18 08:11:06;;;;;;;19.55;7.90;;;7.80;87.50;;;;;;4961892;28;20029;-92
2022/01/18 08:13:38;;;;;;;16.48;8.27;;;7.80;87.50;;;;;;4995053;28;20030;-92
2022/01/18 08:18:53;;;;;;;16.75;7.63;;;7.80;87.50;;;;;;4967005;28;20030;-93
2022/01/18 08:21:19;;;;;;;15.73;7.97;;;7.70;87.40;;;;;;4977713;28;20023;-93
2022/01/18 08:23:45;;;;;;;20.70;9.10;;;7.80;87.60;;;;;;4996878;28;20041;-93
2022/01/18 08:26:11;;;;;;;21.40;8.32;;;7.80;87.60;;;;;;4964957;28;20473;-92
2022/01/18 08:28:37;;;;;;;21.48;8.48;;;7.80;87.70;;;;;;4980723;28;20025;-93
2022/01/18 08:31:04;;;;;;;23.27;8.98;;;7.80;87.70;;;;;;4964652;28;20116;-92
2022/01/18 08:33:33;;;;;;;19.70;9.63;;;7.80;88.20;;;;;;4980929;28;20033;-93
2022/01/18 08:36:04;;;;;;;19.25;8.43;;;7.80;87.70;;;;;;4996929;28;20457;-93
2022/01/18 08:38:33;;;;;;;18.95;8.55;;;7.80;87.70;;;;;;4997062;28;20117;-92
2022/01/18 08:41:00;;;;;;;17.52;8.27;;;7.90;87.70;;;;;;4980754;28;20034;-92
2022/01/18 08:43:31;;;;;;;27.27;7.43;;;7.90;87.60;;;;;;4986124;28;20085;-92
2022/01/18 08:46:00;;;;;;;19.13;8.43;;;7.90;87.50;;;;;;4977235;28;20023;-94
2022/01/18 08:48:26;;;;;;;17.65;7.65;;;7.90;87.40;;;;;;4961483;28;20398;-94
2022/01/18 08:50:52;;;;;;;36.30;10.00;;;7.80;87.40;;;;;;4961785;28;20023;-93
2022/01/18 08:53:18;;;;;;;20.35;8.82;;;7.80;87.40;;;;;;4961439;28;20034;-95
2022/01/18 08:55:44;;;;;;;19.42;8.93;;;7.70;87.30;;;;;;4961565;28;20034;-95
2022/01/18 08:58:09;;;;;;;26.02;10.70;;;7.70;87.40;;;;;;4978262;28;20549;-96
2022/01/18 09:00:35;;;;;;;25.95;10.20;;;7.70;87.40;;;;;;4979137;28;20113;-92
2022/01/18 09:03:02;;;;;;;24.02;10.25;;;7.80;87.50;;;;;;4961325;28;20121;-94
2022/01/18 09:05:28;;;;;;;79.18;10.63;;;7.80;87.50;;;;;;4961708;28;20015;-94
2022/01/18 09:07:53;;;;;;;23.55;9.75;;;7.70;87.30;;;;;;5016598;28;20033;-93
2022/01/18 09:10:23;;;;;;;23.30;9.13;;;7.70;87.50;;;;;;5000250;28;20026;-93
2022/01/18 09:12:49;;;;;;;20.15;9.95;;;7.70;87.70;;;;;;4984513;28;20073;-94
2022/01/18 09:15:14;;;;;;;22.95;9.35;;;7.70;87.80;;;;;;4984451;28;20053;-93
2022/01/18 09:17:41;;;;;;;48.35;9.20;;;7.70;88.40;;;;;;4984469;28;20124;-93
2022/01/18 09:20:09;;;;;;;25.90;7.70;;;7.70;87.80;;;;;;4984565;28;20037;-93
2022/01/18 09:22:38;;;;;;;20.85;8.30;;;7.60;87.70;;;;;;4985632;28;20074;-93
2022/01/18 09:25:07;;;;;;;28.00;8.63;;;7.60;87.70;;;;;;4984800;28;20025;-94
2022/01/18 09:27:34;;;;;;;21.95;8.90;;;7.60;87.80;;;;;;4984449;28;20033;-93
2022/01/18 09:30:00;;;;;;;40.83;9.63;;;7.60;87.80;;;;;;5001525;28;20089;-93
2022/01/18 09:32:25;;;;;;;23.00;8.95;;;7.60;87.60;;;;;;4985151;28;20114;-94
2022/01/18 09:34:51;;;;;;;40.47;8.25;;;7.60;87.50;;;;;;4984383;28;20117;-94
2022/01/18 09:37:17;;;;;;;15.77;8.18;;;7.50;87.30;;;;;;4984070;28;20041;-94
2022/01/18 09:39:43;;;;;;;34.88;7.55;;;7.50;87.40;;;;;;4983827;28;20046;-93
2022/01/18 09:42:11;;;;;;;24.42;7.30;;;7.50;87.40;;;;;;4984132;28;20036;-93
2022/01/18 09:44:37;;;;;;;25.88;8.15;;;7.40;87.30;;;;;;4984000;28;20109;-95
2022/01/18 09:47:04;;;;;;;20.75;7.90;;;7.40;87.40;;;;;;4984039;28;20084;-94
2022/01/18 09:49:29;;;;;;;14.43;7.15;;;7.50;87.50;;;;;;4999902;28;20022;-95
2022/01/18 09:51:55;;;;;;;20.25;8.80;;;7.50;87.60;;;;;;4983916;28;20121;-94
2022/01/18 09:54:21;;;;;;;39.30;7.40;;;7.50;87.60;;;;;;4999934;28;20104;-93
2022/01/18 09:56:47;;;;;;;12.38;6.97;;;7.60;87.60;;;;;;4999895;28;20113;-93
2022/01/18 09:59:13;;;;;;;22.73;6.28;;;7.60;87.50;;;;;;4983708;28;20050;-93
2022/01/18 10:01:38;;;;;;;39.33;7.20;;;7.60;87.50;;;;;;4983690;28;20030;-94
2022/01/18 10:04:23;;;;;;;84.40;7.68;;;7.60;87.60;;;;;;4983258;28;20022;-94
2022/01/18 10:06:55;;;;;;;25.65;6.35;;;7.50;87.40;;;;;;4999607;28;20032;-94
2022/01/18 10:09:22;;;;;;;23.25;6.20;;;7.50;87.50;;;;;;4999708;28;20358;-93
2022/01/18 10:12:13;;;;;;;20.90;6.78;;;7.50;87.60;;;;;;4983652;28;20124;-93
2022/01/18 10:14:53;;;;;;;89.28;8.13;;;7.50;87.80;;;;;;5017109;28;20440;-93
2022/01/18 10:17:40;;;;;;;27.30;6.22;;;7.50;87.60;;;;;;4999367;28;20480;-94
2022/01/18 10:20:14;;;;;;;30.25;5.65;;;7.50;87.50;;;;;;4999516;28;20084;-94
2022/01/18 10:22:44;;;;;;;20.27;4.93;;;7.40;87.50;;;;;;5016698;28;20229;-93
2022/01/18 10:25:14;;;;;;;29.08;5.35;;;7.30;87.60;;;;;;4999336;28;20117;-94
2022/01/18 10:27:40;;;;;;;18.40;5.82;;;7.30;87.70;;;;;;4999336;28;20022;-93
2022/01/18 10:30:09;;;;;;;17.02;6.03;;;7.30;87.80;;;;;;4983094;28;20113;-94
2022/01/18 10:32:40;;;;;;;29.75;5.90;;;7.40;87.80;;;;;;4999491;28;20036;-93
2022/01/18 10:35:08;;;;;;;68.07;6.93;;;7.30;87.60;;;;;;4983400;28;20068;-94
2022/01/18 10:37:38;;;;;;;11.68;6.03;;;7.30;87.60;;;;;;4983415;28;20497;-94
2022/01/18 10:40:17;;;;;;;26.55;5.93;;;7.30;87.70;;;;;;4999540;28;20025;-94
2022/01/18 10:42:42;;;;;;;14.55;5.70;;;7.30;87.90;;;;;;4998934;28;20026;-93
2022/01/18 10:45:35;;;;;;;11.80;5.88;;;7.30;88.00;;;;;;4999184;28;20366;-93
2022/01/18 10:48:09;;;;;;;14.88;5.25;;;7.30;87.80;;;;;;4999082;28;20018;-93
2022/01/18 10:50:38;;;;;;;31.60;5.50;;;7.30;87.80;;;;;;4998975;28;20018;-93
2022/01/18 10:53:19;;;;;;;32.83;5.88;;;7.30;87.80;;;;;;4998945;28;20500;-93
2022/01/18 10:55:47;;;;;;;22.95;5.10;;;7.30;87.90;;;;;;4998524;28;20068;-94
2022/01/18 10:58:18;;;;;;;64.18;7.10;;;7.30;87.90;;;;;;4998651;28;20026;-93
2022/01/18 11:00:44;;;;;;;12.65;5.45;;;7.30;87.80;;;;;;4998792;28;20116;-93
2022/01/18 11:03:11;;;;;;;25.38;6.32;;;7.20;87.70;;;;;;4998681;28;20032;-93
2022/01/18 11:05:39;;;;;;;37.38;6.78;;;7.20;88.00;;;;;;4982670;28;20393;-93
2022/01/18 11:08:07;;;;;;;16.75;7.07;;;7.30;88.20;;;;;;4998481;28;20177;-93
2022/01/18 11:10:38;;;;;;;20.45;7.40;;;7.30;88.20;;;;;;4982081;28;20022;-93
2022/01/18 11:13:10;;;;;;;16.33;6.55;;;7.30;88.30;;;;;;4998386;28;20076;-93
2022/01/18 11:15:40;;;;;;;15.98;7.35;;;7.40;88.50;;;;;;4998461;28;20022;-94
2022/01/18 11:18:15;;;;;;;21.08;6.85;;;7.40;88.40;;;;;;4982408;28;20026;-94
2022/01/18 11:20:44;;;;;;;24.48;7.72;;;7.50;88.30;;;;;;4982890;28;20037;-94
2022/01/18 11:23:10;;;;;;;18.17;7.47;;;7.50;88.20;;;;;;5015593;28;20128;-94
2022/01/18 11:25:37;;;;;;;24.30;7.88;;;7.40;88.20;;;;;;4982156;28;20022;-95
2022/01/18 11:28:06;;;;;;;18.95;7.43;;;7.50;88.50;;;;;;4998341;28;20481;-94
2022/01/18 11:30:42;;;;;;;19.58;7.40;;;7.40;88.40;;;;;;4998233;28;20079;-94
2022/01/18 11:33:12;;;;;;;12.52;6.68;;;7.40;88.40;;;;;;4997402;28;20026;-94
2022/01/18 11:35:53;;;;;;;17.70;6.72;;;7.40;88.40;;;;;;4998400;28;20097;-94
2022/01/18 11:38:29;;;;;;;14.82;6.70;;;7.40;88.40;;;;;;4998267;28;20026;-94
2022/01/18 11:40:58;;;;;;;15.30;6.95;;;7.50;88.50;;;;;;4997979;28;20105;-94
2022/01/18 11:43:41;;;;;;;11.40;6.78;;;7.50;88.40;;;;;;5015361;28;20030;-94
2022/01/18 11:46:29;;;;;;;19.42;6.57;;;7.50;88.40;;;;;;4997875;28;20030;-94
2022/01/18 11:49:31;;;;;;;12.13;7.20;;;7.50;88.30;;;;;;4997702;28;20025;-94
2022/01/18 11:52:07;;;;;;;17.45;8.05;;;7.50;88.00;;;;;;4984514;28;20401;-94
2022/01/18 11:54:57;;;;;;;18.05;7.55;;;7.50;88.20;;;;;;4997874;28;20484;-93
2022/01/18 11:57:23;;;;;;;21.10;7.82;;;7.50;88.10;;;;;;5000194;28;20032;-94
2022/01/18 11:59:51;;;;;;;17.98;7.30;;;7.50;88.10;;;;;;5015207;28;20029;-95
2022/01/18 12:02:37;;;;;;;25.63;8.90;;;7.50;88.10;;;;;;4997462;28;20022;-94
2022/01/18 12:05:13;;;;;;;19.30;8.35;;;7.50;88.00;;;;;;4997626;28;20034;-94
2022/01/18 12:07:44;;;;;;;15.27;8.80;;;7.40;87.80;;;;;;4997479;28;20500;-95
2022/01/18 12:10:34;;;;;;;17.70;8.45;;;7.40;88.00;;;;;;4997701;28;20121;-94
2022/01/18 12:13:01;;;;;;;12.55;7.55;;;7.40;88.10;;;;;;4997506;28;20038;-94
2022/01/18 12:15:33;;;;;;;18.25;8.15;;;7.40;88.20;;;;;;4997451;28;20033;-94
2022/01/18 12:18:02;;;;;;;24.45;10.10;;;7.40;88.20;;;;;;4997370;28;20436;-94
2022/01/18 12:20:46;;;;;;;16.77;8.65;;;7.30;88.30;;;;;;5014868;28;20036;-93
2022/01/18 12:23:17;;;;;;;14.90;7.10;;;7.30;88.60;;;;;;4997336;28;20056;-94
2022/01/18 12:25:56;;;;;;;12.23;7.70;;;7.40;88.80;;;;;;4997380;28;20444;-93
2022/01/18 12:45:09;;;;;;;19.65;8.23;;;7.50;88.20;;;;;;5014717;28;20037;-94
2022/01/18 12:47:40;;;;;;;25.10;9.13;;;7.50;87.80;;;;;;4997012;28;20018;-94
2022/01/18 12:50:08;;;;;;;24.98;9.60;;;7.40;87.70;;;;;;4981423;28;20026;-93
2022/01/18 12:53:07;;;;;;;18.13;7.57;;;7.30;87.60;;;;;;4996870;28;20021;-94
2022/01/18 12:55:43;;;;;;;21.50;8.20;;;7.40;87.80;;;;;;4996744;28;20045;-94
2022/01/18 12:58:25;;;;;;;16.60;8.23;;;7.30;87.80;;;;;;4996712;28;20026;-94
2022/01/18 13:01:16;;;;;;;23.27;8.50;;;7.40;87.90;;;;;;4996850;28;20077;-94
2022/01/18 13:03:48;;;;;;;26.77;11.25;;;7.40;88.00;;;;;;4996619;28;20384;-94
2022/01/18 13:06:18;;;;;;;15.47;7.10;;;7.50;88.10;;;;;;4996753;28;20045;-94
2022/01/18 13:08:48;;;;;;;17.33;8.38;;;7.50;88.00;;;;;;5014094;28;20283;-94
2022/01/18 13:11:22;;;;;;;20.38;9.02;;;7.50;88.00;;;;;;4996630;28;20026;-94
2022/01/18 13:13:57;;;;;;;19.35;8.18;;;7.50;88.10;;;;;;4996833;28;20599;-94
2022/01/18 13:28:01;;;;;;;22.67;9.17;;;7.80;87.60;;;;;;5014448;28;20030;-94
2022/01/18 13:30:21;;;;;;;20.42;8.65;;;7.80;87.60;;;;;;5010064;28;20121;-94
2022/01/18 13:32:50;;;;;;;20.33;8.20;;;7.80;87.60;;;;;;4996585;28;20436;-94
2022/01/18 13:35:20;;;;;;;19.92;8.55;;;7.80;87.50;;;;;;4996625;28;20378;-93
2022/01/18 13:37:46;;;;;;;20.10;9.52;;;7.90;87.70;;;;;;4996856;28;20022;-93
2022/01/18 13:40:15;;;;;;;21.92;8.13;;;7.90;87.50;;;;;;4996836;28;20034;-94
2022/01/18 13:42:44;;;;;;;16.60;7.70;;;7.90;87.40;;;;;;4980494;28;20026;-94
2022/01/18 13:45:16;;;;;;;23.30;7.55;;;8.00;87.50;;;;;;4996295;28;20537;-91
2022/01/18 13:48:00;;;;;;;24.63;7.97;;;8.00;87.30;;;;;;4996502;28;20026;-91
2022/01/18 13:50:50;;;;;;;17.52;7.60;;;8.00;87.30;;;;;;4996356;28;20117;-91
2022/01/18 13:53:28;;;;;;;21.17;8.52;;;8.00;87.10;;;;;;4996117;28;20034;-91
2022/01/18 13:55:59;;;;;;;20.15;8.82;;;8.00;87.00;;;;;;5015961;28;20052;-91
2022/01/18 13:58:33;;;;;;;18.33;7.65;;;8.10;87.10;;;;;;5003288;28;20467;-91
2022/01/18 14:01:08;;;;;;;18.15;7.72;;;8.10;87.00;;;;;;5000553;28;20022;-94
2022/01/18 14:03:36;;;;;;;15.50;7.45;;;8.20;86.70;;;;;;4999880;28;20033;-93
2022/01/18 14:06:02;;;;;;;21.50;7.70;;;8.20;86.70;;;;;;4999891;28;20018;-93
2022/01/18 14:08:36;;;;;;;21.75;7.18;;;8.30;86.30;;;;;;4983682;28;20022;-92
2022/01/18 14:11:07;;;;;;;22.83;6.82;;;8.40;85.60;;;;;;5000184;28;20026;-93
2022/01/18 14:13:36;;;;;;;18.40;6.07;;;8.40;85.20;;;;;;4999848;28;20058;-93
2022/01/18 14:16:23;;;;;;;17.02;6.60;;;8.50;85.40;;;;;;4983899;28;20033;-92
2022/01/18 14:18:56;;;;;;;23.10;8.05;;;8.60;84.90;;;;;;4999714;28;20025;-92
2022/01/18 14:21:31;;;;;;;22.58;6.75;;;8.60;84.40;;;;;;4999765;28;20476;-92
2022/01/18 14:24:13;;;;;;;30.13;7.85;;;8.60;84.10;;;;;;4999440;28;20042;-92
2022/01/18 14:27:01;;;;;;;25.95;7.38;;;8.50;83.90;;;;;;4999475;28;20018;-92
2022/01/18 14:29:29;;;;;;;23.70;6.70;;;8.30;84.00;;;;;;4999616;28;20021;-93
2022/01/18 14:32:07;;;;;;;25.73;7.25;;;8.30;84.30;;;;;;4999473;28;20053;-92
2022/01/18 14:34:41;;;;;;;26.15;7.80;;;8.20;84.10;;;;;;4999288;28;20033;-92
2022/01/18 14:37:08;;;;;;;26.90;8.70;;;8.20;84.10;;;;;;4999310;28;20030;-92
2022/01/18 14:39:50;;;;;;;20.15;6.30;;;8.20;84.30;;;;;;4983608;28;20026;-92
2022/01/18 14:42:16;;;;;;;22.73;6.50;;;8.20;84.50;;;;;;4999156;28;20057;-93
2022/01/18 14:47:26;;;;;;;20.73;6.88;;;8.20;84.70;;;;;;4983827;28;20125;-94